Flugplatz Dortmund

Bericht für EDLW

vom 09.08. um 03:20 UTC

kein Wind

Sichtweite 10 km oder mehr

gute Sicht, keine Wolken < 5000 ft, keine CB, keine Wettererscheinungen (CAVOK)

Temperatur 13.0°C

Taupunkt 11.0°C

Luftfeuchtigkeit 88%

Luftdruck 1026 hPa

EDLW 090320Z 00000KT CAVOK 13/11 Q1026

Prognose für EDLW

vom 09.08. um 03:25 UTC

Zwischen 04:00 UTC und 07:00 UTC

variable Windrichtung mit 3 kt

Sichtweite 10 km oder mehr

keine signifikanten Wettererscheinungen

keine Wolken


Zwischen 07:00 und 09:00 UTC übergehend zu

Wind 5 kt aus 40°

Sichtweite 10 km oder mehr

keine signifikanten Wettererscheinungen

keine Wolken


Zwischen 10:00 UTC und 18:00 UTC zeitweise

Wind 10 kt aus 50°

TAF EDLW 090325Z 0904/0924 VRB03KT CAVOK BECMG 0907/0909 04005KT TEMPO 0910/0918 05010KT
Impressum